Time;durP1;ratioP1;P1;durP2;ratioP2;P2;SDS_P1;SDS_P2;PMS_P1;PMS_P2;Temp;Humidity;BMP_temperature;BMP_pressure;BME280_temperature;BME280_humidity;BME280_pressure;Samples;Min_cycle;Max_cycle;Signal;HPM_P1;HPM_P2
2022/11/01 00:00:22;;;;;;;13.23;2.63;;;;;;;-145.69;100.00;52400.81;5157417;27;20196;-83
2022/11/01 00:02:48;;;;;;;14.90;2.63;;;;;;;-145.69;100.00;52383.00;5157105;27;20227;-82
2022/11/01 00:05:15;;;;;;;12.10;2.77;;;;;;;-145.69;100.00;52371.13;5157323;27;20666;-82
2022/11/01 00:07:41;;;;;;;10.23;2.80;;;;;;;-145.69;100.00;52361.22;5157578;27;20200;-82
2022/11/01 00:10:09;;;;;;;6.43;2.10;;;;;;;-145.69;100.00;52345.38;5157299;27;20646;-83
2022/11/01 00:12:37;;;;;;;10.33;2.20;;;;;;;-145.69;100.00;52351.31;5157323;27;20196;-82
2022/11/01 00:15:04;;;;;;;10.37;2.80;;;;;;;-145.69;100.00;52365.16;5156752;27;20458;-82
2022/11/01 00:17:30;;;;;;;10.48;2.53;;;;;;;-145.69;100.00;52392.91;5157183;27;20232;-83
2022/11/01 00:19:57;;;;;;;8.32;2.35;;;;;;;-145.69;100.00;52353.28;5157340;27;20206;-82
2022/11/01 00:22:25;;;;;;;7.93;2.23;;;;;;;-145.69;100.00;52343.38;5157177;27;20255;-83
2022/11/01 00:24:51;;;;;;;11.80;2.33;;;;;;;-145.69;100.00;52371.13;5145793;27;20192;-83
2022/11/01 00:27:19;;;;;;;12.95;2.97;;;;;;;-145.69;100.00;52349.31;5136468;27;20200;-83
2022/11/01 00:29:46;;;;;;;5.97;2.30;;;;;;;-145.69;100.00;52311.69;5136147;27;20579;-83
2022/11/01 00:32:13;;;;;;;10.68;2.30;;;;;;;-145.69;100.00;52357.25;5136104;27;20201;-82
2022/11/01 00:34:39;;;;;;;7.68;2.50;;;;;;;-145.69;100.00;52359.22;5136117;27;20703;-83
2022/11/01 00:37:06;;;;;;;6.47;2.00;;;;;;;-145.69;100.00;52369.13;5136342;27;20204;-81
2022/11/01 00:39:32;;;;;;;7.53;2.43;;;;;;;-145.69;100.00;52384.97;5136365;27;20559;-82
2022/11/01 00:41:59;;;;;;;9.93;2.47;;;;;;;-145.69;100.00;52349.31;5136506;27;20311;-82
2022/11/01 00:44:25;;;;;;;8.38;2.17;;;;;;;-145.69;100.00;52335.47;5135820;27;20651;-82
2022/11/01 00:46:53;;;;;;;7.78;2.70;;;;;;;-145.69;100.00;52343.38;5121925;27;20217;-82
2022/11/01 00:49:20;;;;;;;10.33;1.97;;;;;;;-145.69;100.00;52357.25;5115523;28;20208;-82
2022/11/01 00:51:47;;;;;;;12.95;2.38;;;;;;;-145.69;100.00;52367.16;5115331;28;20201;-83
2022/11/01 00:54:13;;;;;;;9.93;2.20;;;;;;;-145.69;100.00;52345.38;5121237;27;20190;-82
2022/11/01 00:56:40;;;;;;;11.27;2.27;;;;;;;-145.69;100.00;52333.47;5135729;27;20600;-82
2022/11/01 00:59:06;;;;;;;11.17;2.50;;;;;;;-145.69;100.00;52331.50;5135510;27;20193;-83
2022/11/01 01:01:33;;;;;;;7.07;2.10;;;;;;;-145.69;100.00;52359.22;5135858;27;20575;-83
2022/11/01 01:04:01;;;;;;;6.88;2.30;;;;;;;-145.69;100.00;52361.22;5135495;27;20658;-83
2022/11/01 01:06:27;;;;;;;7.63;1.90;;;;;;;-145.69;100.00;52355.28;5135700;27;20200;-82
2022/11/01 01:08:57;;;;;;;11.68;2.50;;;;;;;-145.69;100.00;52377.06;5137198;27;20207;-82
2022/11/01 01:11:23;;;;;;;12.18;2.63;;;;;;;-145.69;100.00;52325.56;5155049;27;20915;-82
2022/11/01 01:13:50;;;;;;;10.90;2.40;;;;;;;-145.69;100.00;52377.06;5148065;27;20197;-83
2022/11/01 01:16:16;;;;;;;8.80;2.35;;;;;;;-145.69;100.00;52373.09;5135367;27;20197;-82
2022/11/01 01:18:43;;;;;;;7.20;2.08;;;;;;;-145.69;100.00;52345.38;5154706;27;20192;-82
2022/11/01 01:21:12;;;;;;;8.52;3.10;;;;;;;-145.69;100.00;52369.13;5155967;27;20196;-82
2022/11/01 01:23:39;;;;;;;9.10;2.80;;;;;;;-145.69;100.00;52386.97;5155963;27;20714;-82
2022/11/01 01:26:07;;;;;;;11.50;2.75;;;;;;;-145.69;100.00;52377.06;5155454;27;20279;-82
2022/11/01 01:28:34;;;;;;;7.77;2.37;;;;;;;-145.69;100.00;52359.22;5156869;27;20669;-82
2022/11/01 01:31:00;;;;;;;10.77;2.80;;;;;;;-145.69;100.00;52375.06;5156103;27;20721;-82
2022/11/01 01:33:27;;;;;;;8.93;2.50;;;;;;;-145.69;100.00;52335.47;5155598;27;20224;-82
2022/11/01 01:35:53;;;;;;;13.43;2.80;;;;;;;-145.69;100.00;52371.13;5155822;27;20291;-82
2022/11/01 01:38:21;;;;;;;8.77;2.28;;;;;;;-145.69;100.00;52373.09;5148377;27;20192;-82
2022/11/01 01:40:48;;;;;;;14.40;2.35;;;;;;;-145.69;100.00;52349.31;5134849;27;20203;-83
2022/11/01 01:43:14;;;;;;;9.10;2.42;;;;;;;-145.69;100.00;52361.22;5134858;27;20247;-82
2022/11/01 01:45:41;;;;;;;6.32;2.13;;;;;;;-145.69;100.00;52341.41;5134919;27;20204;-83
2022/11/01 01:48:16;;;;;;;11.18;2.80;;;;;;;-145.69;100.00;52349.31;5134774;27;20200;-82
2022/11/01 01:50:47;;;;;;;10.00;2.67;;;;;;;-145.69;100.00;52301.81;5134214;27;20206;-82
2022/11/01 01:53:18;;;;;;;9.93;2.40;;;;;;;-145.69;100.00;52379.03;5134922;27;20202;-82
2022/11/01 01:55:53;;;;;;;10.65;2.58;;;;;;;-145.69;100.00;52333.47;5134834;27;20204;-82
2022/11/01 01:58:22;;;;;;;8.45;2.50;;;;;;;-145.69;100.00;52349.31;5134714;27;20207;-82
2022/11/01 02:00:50;;;;;;;4.20;2.10;;;;;;;-145.69;100.00;52345.38;5134702;27;20212;-82
2022/11/01 02:03:16;;;;;;;14.15;2.72;;;;;;;-145.69;100.00;52325.56;5134232;27;20220;-83
2022/11/01 02:05:49;;;;;;;8.82;2.45;;;;;;;-145.69;100.00;52341.41;5134342;27;20196;-82
2022/11/01 02:08:25;;;;;;;10.15;2.20;;;;;;;-145.69;100.00;52345.38;5134466;27;20196;-82
2022/11/01 02:10:54;;;;;;;7.47;2.53;;;;;;;-145.69;100.00;52341.41;5134427;27;20201;-83
2022/11/01 02:13:20;;;;;;;8.43;2.22;;;;;;;-145.69;100.00;52373.09;5134489;27;20192;-82
2022/11/01 02:16:12;;;;;;;9.48;2.10;;;;;;;-145.69;100.00;52337.44;5134069;27;20287;-82
2022/11/01 02:18:46;;;;;;;11.43;2.40;;;;;;;-145.69;100.00;52321.59;5134127;27;20208;-83
2022/11/01 02:21:45;;;;;;;11.88;2.42;;;;;;;-145.69;100.00;52327.53;5133943;27;20552;-82
2022/11/01 02:24:28;;;;;;;14.55;2.58;;;;;;;-145.69;100.00;52339.44;5150572;27;20202;-82
2022/11/01 02:27:14;;;;;;;7.28;2.45;;;;;;;-145.69;100.00;52347.34;5154497;27;20200;-82
2022/11/01 02:30:05;;;;;;;9.57;2.72;;;;;;;-145.69;100.00;52357.25;5154613;27;20203;-82
2022/11/01 02:32:44;;;;;;;10.65;2.25;;;;;;;-145.69;100.00;52345.38;5155052;27;20204;-83
2022/11/01 02:35:21;;;;;;;12.82;2.28;;;;;;;-145.69;100.00;52349.31;5154638;27;20634;-83
2022/11/01 02:37:53;;;;;;;5.07;1.98;;;;;;;-145.69;100.00;52329.53;5155033;27;20558;-83
2022/11/01 02:40:27;;;;;;;7.32;2.15;;;;;;;-145.69;100.00;52345.38;5142753;27;20237;-83
2022/11/01 02:42:59;;;;;;;6.20;2.10;;;;;;;-145.69;100.00;52295.84;5113031;28;20216;-82
2022/11/01 02:45:31;;;;;;;9.75;2.50;;;;;;;-145.69;100.00;52369.13;5113320;28;20205;-83
2022/11/01 02:48:01;;;;;;;11.10;2.75;;;;;;;-145.69;100.00;52335.47;5133417;27;20196;-83
2022/11/01 02:50:32;;;;;;;8.70;2.55;;;;;;;-145.69;100.00;52321.59;5154975;27;20673;-83
2022/11/01 02:52:59;;;;;;;9.52;2.15;;;;;;;-145.69;100.00;52315.66;5154598;27;20196;-84
2022/11/01 02:55:33;;;;;;;6.82;2.50;;;;;;;-145.69;100.00;52331.50;5154652;27;20738;-83
2022/11/01 02:58:03;;;;;;;6.35;2.10;;;;;;;-145.69;100.00;52345.38;5154521;27;20204;-83
2022/11/01 03:00:32;;;;;;;7.63;2.25;;;;;;;-145.69;100.00;52333.47;5154781;27;20200;-83
2022/11/01 03:03:09;;;;;;;6.97;2.35;;;;;;;-145.69;100.00;52341.41;5157989;27;20266;-83
2022/11/01 03:05:43;;;;;;;8.25;2.35;;;;;;;-145.69;100.00;52345.38;5158854;27;20676;-84
2022/11/01 03:08:13;;;;;;;7.57;2.63;;;;;;;-145.69;100.00;52351.31;5158570;27;20746;-83
2022/11/01 03:10:52;;;;;;;10.48;2.22;;;;;;;-145.69;100.00;52335.47;5158745;27;20192;-83
2022/11/01 03:13:32;;;;;;;11.35;2.33;;;;;;;-145.69;91.10;52278.03;5158671;27;20561;-82
2022/11/01 03:16:12;;;;;;;11.45;2.80;;;;;;;-145.69;88.60;52317.66;5158581;27;20281;-82
2022/11/01 03:18:55;;;;;;;11.88;2.78;;;;;;;-145.69;83.02;52297.84;5156335;27;20546;-83
2022/11/01 03:21:25;;;;;;;10.43;2.75;;;;;;;-145.69;84.19;52272.09;5117198;28;20202;-82
2022/11/01 03:24:01;;;;;;;13.20;2.45;;;;;;;-145.69;88.45;52285.97;5116765;28;20264;-84
2022/11/01 03:26:31;;;;;;;14.48;2.22;;;;;;;-145.69;91.47;52289.91;5116889;28;20197;-82
2022/11/01 03:29:02;;;;;;;10.35;2.88;;;;;;;-145.69;94.90;52301.81;5116594;28;20201;-82
2022/11/01 03:31:31;;;;;;;15.00;2.85;;;;;;;-145.69;95.32;52301.81;5116724;28;20671;-82
2022/11/01 03:34:01;;;;;;;10.13;2.75;;;;;;;-145.69;96.27;52309.72;5116682;28;20226;-82
2022/11/01 03:36:32;;;;;;;8.20;2.35;;;;;;;-145.69;98.00;52282.00;5116665;28;20521;-83
2022/11/01 03:39:03;;;;;;;11.13;3.42;;;;;;;-145.69;99.95;52301.81;5116551;28;20205;-83
2022/11/01 03:41:34;;;;;;;12.65;2.80;;;;;;;-145.69;100.00;52282.00;5116787;28;20205;-82
2022/11/01 03:44:02;;;;;;;16.02;2.70;;;;;;;-145.69;100.00;52309.72;5116593;28;20278;-83
2022/11/01 03:46:28;;;;;;;16.85;3.88;;;;;;;-145.69;100.00;52287.94;5116680;28;20289;-83
2022/11/01 03:48:55;;;;;;;10.13;2.65;;;;;;;-145.69;100.00;52278.03;5152578;27;20192;-83
2022/11/01 03:51:23;;;;;;;14.85;3.00;;;;;;;-145.69;100.00;52321.59;5157749;27;20219;-83
2022/11/01 03:53:49;;;;;;;7.40;2.97;;;;;;;-145.69;100.00;52317.66;5157664;27;20396;-83
2022/11/01 03:56:16;;;;;;;12.68;3.10;;;;;;;-145.69;100.00;52329.53;5157598;27;20242;-84
2022/11/01 03:58:44;;;;;;;9.88;2.42;;;;;;;-145.69;100.00;52293.88;5157586;27;20236;-82
2022/11/01 04:01:12;;;;;;;10.30;2.90;;;;;;;-145.69;100.00;52341.41;5157668;27;20211;-83
2022/11/01 04:03:38;;;;;;;9.07;2.83;;;;;;;-145.69;100.00;52305.75;5157415;27;20200;-82
2022/11/01 04:06:06;;;;;;;7.93;3.17;;;;;;;-145.69;100.00;52329.53;5156653;27;20192;-82
2022/11/01 04:08:35;;;;;;;8.55;2.53;;;;;;;-145.69;100.00;52309.72;5157159;27;20196;-83
2022/11/01 04:11:02;;;;;;;14.95;3.33;;;;;;;-145.69;100.00;52325.56;5157373;27;20203;-83
2022/11/01 04:13:29;;;;;;;10.85;3.10;;;;;;;-145.69;100.00;52335.47;5156592;27;20210;-83
2022/11/01 04:21:34;;;;;;;9.88;2.92;;;;;;;-145.69;100.00;52323.59;5157066;27;20192;-82
2022/11/01 04:24:02;;;;;;;8.00;3.05;;;;;;;-145.69;100.00;52313.69;5157068;27;20270;-83
2022/11/01 04:26:29;;;;;;;8.45;2.78;;;;;;;-145.69;100.00;52293.88;5156959;27;20192;-82
2022/11/01 04:29:00;;;;;;;6.93;2.42;;;;;;;-145.69;100.00;52325.56;5156905;27;20654;-82
2022/11/01 04:31:31;;;;;;;6.68;2.35;;;;;;;-145.69;100.00;52295.84;5156947;27;20240;-82
2022/11/01 04:33:59;;;;;;;7.30;2.58;;;;;;;-145.69;100.00;52313.69;5156847;27;20238;-83
2022/11/01 04:36:29;;;;;;;9.25;2.75;;;;;;;-145.69;100.00;52337.44;5128634;27;20604;-83
2022/11/01 04:38:56;;;;;;;10.75;2.45;;;;;;;-145.69;100.00;52278.03;5156468;27;20817;-83
2022/11/01 04:41:26;;;;;;;7.50;2.17;;;;;;;-145.69;100.00;52301.81;5156414;27;20681;-83
2022/11/01 04:43:54;;;;;;;5.35;1.92;;;;;;;-145.69;100.00;52305.75;5156484;27;20239;-82
2022/11/01 04:46:20;;;;;;;8.13;2.00;;;;;;;-145.69;100.00;52276.06;5156605;27;20550;-83
2022/11/01 04:48:52;;;;;;;5.60;1.90;;;;;;;-145.69;100.00;52321.59;5156620;27;20202;-83
2022/11/01 04:51:18;;;;;;;7.82;1.63;;;;;;;-145.69;100.00;52325.56;5156095;27;20210;-82
2022/11/01 04:53:45;;;;;;;6.60;1.48;;;;;;;-145.69;100.00;52274.06;5156610;27;20196;-82
2022/11/01 04:56:17;;;;;;;4.82;1.98;;;;;;;-145.69;100.00;52303.78;5156644;27;20200;-85
2022/11/01 04:58:45;;;;;;;4.03;1.70;;;;;;;-145.69;100.00;52291.91;5155777;27;20192;-82
2022/11/01 05:01:16;;;;;;;4.30;1.67;;;;;;;-145.69;100.00;52289.91;5153642;27;20200;-84
2022/11/01 05:03:43;;;;;;;7.00;1.73;;;;;;;-145.69;100.00;52262.19;5156495;27;20708;-82
2022/11/01 05:06:10;;;;;;;6.60;1.63;;;;;;;-145.69;100.00;52289.91;5156247;27;20202;-83
2022/11/01 05:08:39;;;;;;;2.92;1.33;;;;;;;-145.69;100.00;52299.81;5156002;27;20264;-82
2022/11/01 05:11:06;;;;;;;5.70;1.52;;;;;;;-145.69;100.00;52278.03;5155562;27;20194;-82
2022/11/01 05:13:33;;;;;;;2.63;1.20;;;;;;;-145.69;100.00;52283.97;5156237;27;20192;-83
2022/11/01 05:16:03;;;;;;;3.75;1.23;;;;;;;-145.69;100.00;52278.03;5155781;27;20650;-83
2022/11/01 05:18:30;;;;;;;3.00;1.30;;;;;;;-145.69;100.00;52282.00;5156146;27;20287;-83
2022/11/01 05:20:59;;;;;;;3.22;1.30;;;;;;;-145.69;100.00;52295.84;5155794;27;20471;-83
2022/11/01 05:23:25;;;;;;;1.60;1.02;;;;;;;-145.69;100.00;52301.81;5155780;27;20257;-83
2022/11/01 05:25:52;;;;;;;3.92;1.13;;;;;;;-145.69;100.00;52280.00;5154334;27;20196;-82
2022/11/01 05:28:21;;;;;;;6.53;1.58;;;;;;;-145.69;100.00;52315.66;5156000;27;20199;-83
2022/11/01 05:30:47;;;;;;;7.35;1.20;;;;;;;-145.69;100.00;52303.78;5155860;27;20592;-82
2022/11/01 05:33:16;;;;;;;3.30;1.20;;;;;;;-145.69;100.00;52299.81;5155591;27;20280;-83
2022/11/01 05:35:43;;;;;;;4.25;1.17;;;;;;;-145.69;100.00;52307.75;5155699;27;20196;-82
2022/11/01 05:38:10;;;;;;;5.25;1.20;;;;;;;-145.69;100.00;52295.84;5155343;27;20291;-82
2022/11/01 05:40:36;;;;;;;4.28;1.25;;;;;;;-145.69;100.00;52270.13;5148366;27;20195;-82
2022/11/01 05:43:03;;;;;;;6.15;1.40;;;;;;;-145.69;100.00;52301.81;5134647;27;20228;-82
2022/11/01 05:45:29;;;;;;;2.53;1.00;;;;;;;-145.69;100.00;52325.56;5134642;27;20200;-82
2022/11/01 05:48:01;;;;;;;4.50;1.10;;;;;;;-145.69;100.00;52309.72;5134638;27;20219;-82
2022/11/01 05:50:32;;;;;;;0.73;0.70;;;;;;;-145.69;100.00;52305.75;5134147;27;20536;-82
2022/11/01 05:53:06;;;;;;;2.78;1.27;;;;;;;-145.69;100.00;52309.72;5134549;27;20196;-82
2022/11/01 05:55:33;;;;;;;2.80;0.80;;;;;;;-145.69;100.00;52297.84;5134443;27;20200;-81
2022/11/01 05:58:00;;;;;;;3.28;0.90;;;;;;;-145.69;100.00;52274.06;5118245;27;20193;-82
2022/11/01 06:00:27;;;;;;;2.38;1.10;;;;;;;-145.69;100.00;52289.91;5134275;27;20204;-82
2022/11/01 06:02:53;;;;;;;1.27;0.90;;;;;;;-145.69;100.00;52305.75;5134324;27;20221;-82
2022/11/01 06:05:20;;;;;;;6.57;1.10;;;;;;;-145.69;100.00;52293.88;5134373;27;20292;-83
2022/11/01 06:07:49;;;;;;;6.07;0.90;;;;;;;-145.69;100.00;52297.84;5134490;27;20203;-82
2022/11/01 06:10:16;;;;;;;3.13;0.75;;;;;;;-145.69;100.00;52329.53;5134331;27;20197;-82
2022/11/01 06:12:43;;;;;;;2.05;0.95;;;;;;;-145.69;100.00;52303.78;5134245;27;20192;-83
2022/11/01 06:15:10;;;;;;;0.98;0.70;;;;;;;-145.69;100.00;52347.34;5143250;27;20189;-81
2022/11/01 06:17:37;;;;;;;2.03;1.00;;;;;;;-145.69;100.00;52282.00;5154933;27;20287;-82
2022/11/01 06:20:04;;;;;;;3.08;1.05;;;;;;;-145.69;100.00;52319.63;5154782;27;20288;-82
2022/11/01 06:22:30;;;;;;;2.97;1.13;;;;;;;-145.69;100.00;52333.47;5155140;27;20196;-82
2022/11/01 06:25:03;;;;;;;2.58;0.98;;;;;;;-145.69;100.00;52321.59;5154695;27;20219;-82
2022/11/01 06:27:32;;;;;;;2.45;0.60;;;;;;;-145.69;100.00;52303.78;5155241;27;20202;-83
2022/11/01 06:29:58;;;;;;;0.65;0.60;;;;;;;-145.69;100.00;52303.78;5155103;27;20654;-81
2022/11/01 06:32:26;;;;;;;1.38;0.82;;;;;;;-145.69;100.00;52303.78;5154699;27;20200;-82
2022/11/01 06:34:53;;;;;;;0.90;0.68;;;;;;;-145.69;100.00;52301.81;5139450;27;20228;-82
2022/11/01 06:37:22;;;;;;;1.00;0.70;;;;;;;-145.69;100.00;52287.94;5133732;27;20200;-82
2022/11/01 06:39:49;;;;;;;1.00;0.80;;;;;;;-145.69;100.00;52313.69;5148238;27;20220;-82
2022/11/01 06:42:17;;;;;;;1.58;0.75;;;;;;;-145.69;100.00;52309.72;5155336;27;20225;-83
2022/11/01 06:44:43;;;;;;;1.83;0.70;;;;;;;-145.69;100.00;52357.25;5155387;27;20227;-82
2022/11/01 06:47:12;;;;;;;0.60;0.60;;;;;;;-145.69;100.00;52305.75;5156002;27;20227;-83
2022/11/01 06:49:38;;;;;;;1.05;0.60;;;;;;;-145.69;100.00;52339.44;5155574;27;20224;-82
2022/11/01 06:52:05;;;;;;;2.30;0.65;;;;;;;-145.69;100.00;52337.44;5155441;27;20292;-83
2022/11/01 06:54:35;;;;;;;2.08;0.43;;;;;;;-145.69;100.00;52337.44;5155340;27;20240;-83
2022/11/01 06:57:01;;;;;;;1.05;0.50;;;;;;;-145.69;100.00;52325.56;5154716;27;20192;-83
2022/11/01 06:59:32;;;;;;;1.52;0.88;;;;;;;-145.69;100.00;52321.59;5154709;27;20646;-83
2022/11/01 07:01:58;;;;;;;0.95;0.85;;;;;;;-145.69;100.00;52307.75;5155630;27;20204;-82
2022/11/01 07:04:27;;;;;;;0.80;0.60;;;;;;;-145.69;100.00;52335.47;5156308;27;20233;-82
2022/11/01 07:06:56;;;;;;;1.15;0.73;;;;;;;-145.69;100.00;52361.22;5155265;27;20196;-82
2022/11/01 07:09:25;;;;;;;1.23;0.82;;;;;;;-145.69;100.00;52335.47;5145032;27;20196;-83
2022/11/01 07:11:51;;;;;;;1.35;0.95;;;;;;;-145.69;100.00;52353.28;5133959;27;20208;-83
2022/11/01 07:14:18;;;;;;;2.10;0.80;;;;;;;-145.69;100.00;52321.59;5133556;27;20193;-83
2022/11/01 07:16:47;;;;;;;1.15;0.70;;;;;;;-145.69;100.00;52315.66;5134213;28;20208;-82
2022/11/01 07:19:15;;;;;;;2.47;0.80;;;;;;;-145.69;100.00;52349.31;5133960;28;20204;-83
2022/11/01 07:21:41;;;;;;;1.13;0.90;;;;;;;-145.69;100.00;52333.47;5133691;28;20200;-82
2022/11/01 07:24:10;;;;;;;1.52;1.08;;;;;;;-145.69;100.00;52353.28;5133635;28;20224;-80
2022/11/01 07:26:37;;;;;;;1.42;0.85;;;;;;;-145.69;100.00;52327.53;5133459;27;20655;-83
2022/11/01 07:29:03;;;;;;;1.40;0.80;;;;;;;-145.69;100.00;52335.47;5133998;27;20197;-83
2022/11/01 07:31:32;;;;;;;3.22;1.00;;;;;;;-145.69;100.00;52321.59;5133281;27;20644;-82
2022/11/01 07:34:00;;;;;;;1.13;0.57;;;;;;;-145.69;100.00;52309.72;5133482;27;20587;-83
2022/11/01 07:36:26;;;;;;;1.40;0.75;;;;;;;-145.69;100.00;52309.72;5133550;27;20193;-82
2022/11/01 07:38:53;;;;;;;1.05;0.70;;;;;;;-145.69;100.00;52325.56;5133969;27;20334;-81
2022/11/01 07:41:21;;;;;;;3.00;0.70;;;;;;;-145.69;100.00;52335.47;5132836;27;20197;-83
2022/11/01 07:43:52;;;;;;;1.52;0.70;;;;;;;-145.69;100.00;52301.81;5132611;27;20454;-82
2022/11/01 07:46:21;;;;;;;0.50;0.50;;;;;;;-145.69;100.00;52335.47;5133481;27;20232;-83
2022/11/01 07:48:49;;;;;;;0.82;0.68;;;;;;;-145.69;100.00;52329.53;5134712;27;20338;-83
2022/11/01 07:51:18;;;;;;;1.30;0.35;;;;;;;-145.69;100.00;52291.91;5137104;27;20316;-83
2022/11/01 07:53:44;;;;;;;0.75;0.55;;;;;;;-145.69;100.00;52339.44;5137034;27;20650;-85
2022/11/01 07:56:11;;;;;;;0.50;0.47;;;;;;;-145.69;100.00;52317.66;5137116;27;20208;-82
2022/11/01 07:58:42;;;;;;;3.15;0.57;;;;;;;-145.69;100.00;52309.72;5136737;27;20204;-84
2022/11/01 08:01:08;;;;;;;0.50;0.50;;;;;;;-145.69;100.00;52303.78;5137001;27;20551;-83
2022/11/01 08:03:38;;;;;;;0.75;0.40;;;;;;;-145.69;100.00;52297.84;5143508;27;20216;-83
2022/11/01 08:06:05;;;;;;;0.57;0.40;;;;;;;-145.69;100.00;52317.66;5137205;27;20197;-83
2022/11/01 08:08:33;;;;;;;0.65;0.60;;;;;;;-145.69;100.00;52311.69;5136491;27;20232;-83
2022/11/01 08:11:00;;;;;;;0.60;0.60;;;;;;;-145.69;100.00;52305.75;5136591;27;20654;-83
2022/11/01 08:13:30;;;;;;;0.63;0.43;;;;;;;-145.69;100.00;52299.81;5136689;27;20204;-84
2022/11/01 08:16:01;;;;;;;2.40;1.05;;;;;;;-145.69;100.00;52309.72;5136836;27;20204;-84
2022/11/01 08:18:28;;;;;;;0.77;0.50;;;;;;;-145.69;100.00;52345.38;5136215;27;20218;-82
2022/11/01 08:20:55;;;;;;;0.65;0.60;;;;;;;-145.69;100.00;52307.75;5136225;27;20595;-84
2022/11/01 08:23:21;;;;;;;1.20;0.60;;;;;;;-145.69;100.00;52280.00;5136516;27;20197;-84
2022/11/01 08:25:49;;;;;;;0.98;0.57;;;;;;;-145.69;100.00;52272.09;5133302;27;20192;-84
2022/11/01 08:28:18;;;;;;;0.45;0.45;;;;;;;-145.69;100.00;52317.66;5136581;27;20253;-84
2022/11/01 08:30:46;;;;;;;0.38;0.38;;;;;;;-145.69;100.00;52289.91;5136585;27;20292;-84
2022/11/01 08:33:12;;;;;;;0.40;0.40;;;;;;;-145.69;100.00;52329.53;5135891;27;20322;-84
2022/11/01 08:35:39;;;;;;;0.68;0.57;;;;;;;-145.69;100.00;52307.75;5136317;27;20193;-82
2022/11/01 08:38:06;;;;;;;2.92;0.70;;;;;;;-145.69;100.00;52293.88;5136302;27;20200;-82
2022/11/01 08:40:34;;;;;;;1.02;0.50;;;;;;;-145.69;100.00;52262.19;5135714;27;20206;-83
2022/11/01 08:43:02;;;;;;;1.50;0.50;;;;;;;-145.69;100.00;52289.91;5132922;27;20674;-83
2022/11/01 08:45:28;;;;;;;0.65;0.47;;;;;;;-145.69;100.00;52319.63;5135650;27;20227;-83
2022/11/01 08:47:59;;;;;;;2.83;1.23;;;;;;;-145.69;100.00;52278.03;5135909;27;20243;-82
2022/11/01 08:50:25;;;;;;;1.70;0.70;;;;;;;-145.69;99.91;52317.66;5136256;27;20200;-83
2022/11/01 08:52:52;;;;;;;0.60;0.60;;;;;;;-145.69;100.00;52325.56;5135952;27;20203;-83
2022/11/01 08:55:19;;;;;;;0.80;0.60;;;;;;;-145.69;100.00;52319.63;5134436;27;20201;-85
2022/11/01 08:57:47;;;;;;;2.22;0.60;;;;;;;-145.69;100.00;52285.97;5133969;27;20213;-83
2022/11/01 09:00:16;;;;;;;7.28;4.03;;;;;;;-145.69;100.00;52276.06;5132320;27;20954;-82
2022/11/01 09:02:43;;;;;;;1.83;1.30;;;;;;;-145.69;100.00;52299.81;5134257;27;20197;-83
2022/11/01 09:05:09;;;;;;;2.97;1.63;;;;;;;-145.69;100.00;52329.53;5147659;27;20248;-82
2022/11/01 09:07:37;;;;;;;0.60;0.57;;;;;;;-145.69;100.00;52295.84;5139523;27;20193;-82
2022/11/01 09:10:05;;;;;;;2.55;1.40;;;;;;;-145.69;100.00;52305.75;5113598;28;20201;-82
2022/11/01 09:12:31;;;;;;;3.03;1.13;;;;;;;-145.69;100.00;52293.88;5154648;27;20199;-82
2022/11/01 09:14:58;;;;;;;0.60;0.60;;;;;;;-145.69;99.20;52325.56;5156306;27;20204;-83
2022/11/01 09:17:26;;;;;;;1.95;1.00;;;;;;;-145.69;99.88;52274.06;5156739;27;20676;-82
2022/11/01 09:19:55;;;;;;;0.70;0.60;;;;;;;-145.69;98.96;52331.50;5156692;27;20200;-81
2022/11/01 09:22:26;;;;;;;0.73;0.50;;;;;;;-145.69;95.61;52289.91;5149360;27;20197;-82
2022/11/01 09:24:54;;;;;;;1.02;0.80;;;;;;;-145.69;98.70;52311.69;5135965;27;20274;-82
2022/11/01 09:27:21;;;;;;;3.60;0.60;;;;;;;-145.69;96.53;52303.78;5137063;27;20283;-82
2022/11/01 09:29:47;;;;;;;1.15;0.63;;;;;;;-145.69;94.49;52282.00;5135137;27;20546;-84
2022/11/01 09:32:16;;;;;;;0.50;0.50;;;;;;;-145.69;100.00;52264.16;5135691;27;20222;-84
2022/11/01 09:34:45;;;;;;;1.08;0.80;;;;;;;-145.69;92.61;52270.13;5134982;27;20236;-82
2022/11/01 09:37:12;;;;;;;0.60;0.60;;;;;;;-145.69;87.19;52289.91;5135171;27;20704;-83
2022/11/01 09:39:38;;;;;;;0.57;0.50;;;;;;;-145.69;87.29;52285.97;5134860;27;20555;-82
2022/11/01 09:42:10;;;;;;;0.90;0.50;;;;;;;-145.69;85.26;52258.22;5149591;27;20199;-82
2022/11/01 09:44:43;;;;;;;1.23;0.70;;;;;;;-145.69;87.02;52301.81;5155497;27;20227;-82
2022/11/01 09:47:15;;;;;;;0.85;0.40;;;;;;;-145.69;86.62;52282.00;5153962;27;20206;-83
2022/11/01 09:49:46;;;;;;;3.95;0.68;;;;;;;-145.69;92.02;52254.28;5155286;27;20675;-83
2022/11/01 09:52:18;;;;;;;0.57;0.52;;;;;;;-145.69;87.65;52248.34;5149740;27;20199;-81
2022/11/01 09:54:45;;;;;;;0.40;0.40;;;;;;;-145.69;89.80;52246.34;5142459;27;20204;-81
2022/11/01 09:57:20;;;;;;;0.60;0.38;;;;;;;-145.69;91.86;52260.22;5136421;27;20730;-83
2022/11/01 09:59:58;;;;;;;0.90;0.40;;;;;;;-145.69;92.42;52230.50;5134373;27;20203;-82
2022/11/01 10:03:00;;;;;;;1.60;0.68;;;;;;;-145.69;92.04;52278.03;5134461;27;20208;-82
2022/11/01 10:05:44;;;;;;;1.65;0.50;;;;;;;-145.69;88.98;52274.06;5134188;27;20624;-82
2022/11/01 10:08:18;;;;;;;1.50;0.63;;;;;;;-145.69;90.10;52246.34;5141134;27;20218;-82
2022/11/01 10:10:59;;;;;;;0.70;0.50;;;;;;;-145.69;90.04;52258.22;5141024;27;20192;-81
2022/11/01 10:13:38;;;;;;;0.73;0.40;;;;;;;-145.69;91.59;52246.34;5166943;27;20195;-82
2022/11/01 10:16:12;;;;;;;1.20;0.70;;;;;;;-145.69;89.81;52272.09;5154046;27;20291;-82
2022/11/01 10:18:46;;;;;;;2.70;0.80;;;;;;;-145.69;90.90;52260.22;5115712;28;20193;-83
2022/11/01 10:21:16;;;;;;;1.33;0.40;;;;;;;-145.69;91.76;52276.06;5113598;28;20201;-82
2022/11/01 10:23:47;;;;;;;2.88;0.50;;;;;;;-145.69;92.01;52258.22;5113530;28;20208;-82
2022/11/01 10:26:18;;;;;;;0.57;0.43;;;;;;;-145.69;95.20;52258.22;5114127;28;20230;-83
2022/11/01 10:28:51;;;;;;;0.57;0.50;;;;;;;-145.69;94.52;52291.91;5113947;28;20215;-83
2022/11/01 10:31:22;;;;;;;1.58;0.70;;;;;;;-145.69;95.24;52266.16;5114215;28;20224;-81
2022/11/01 10:33:55;;;;;;;2.05;0.57;;;;;;;-145.69;96.99;52274.06;5113886;28;20227;-82
2022/11/01 10:36:27;;;;;;;0.40;0.40;;;;;;;-145.69;96.77;52246.34;5114804;28;20252;-81
2022/11/01 10:39:01;;;;;;;1.65;0.60;;;;;;;-145.69;99.33;52274.06;5115154;28;20197;-82
2022/11/01 10:41:35;;;;;;;1.23;0.55;;;;;;;-145.69;98.44;52264.16;5137823;27;20215;-81
2022/11/01 10:44:07;;;;;;;2.60;0.63;;;;;;;-145.69;98.86;52270.13;5155682;27;20200;-81
2022/11/01 10:46:39;;;;;;;5.10;0.90;;;;;;;-145.69;100.00;52246.34;5155054;27;20658;-81
2022/11/01 10:49:15;;;;;;;3.30;0.80;;;;;;;-145.69;98.36;52262.19;5155068;27;20249;-81
2022/11/01 10:51:47;;;;;;;1.02;0.82;;;;;;;-145.69;99.35;52258.22;5156977;27;20240;-81
2022/11/01 10:54:20;;;;;;;1.05;0.80;;;;;;;-145.69;99.86;52293.88;5156997;27;20204;-82
2022/11/01 10:56:49;;;;;;;1.20;0.85;;;;;;;-145.69;100.00;52291.91;5154867;27;20202;-81
2022/11/01 10:59:20;;;;;;;0.70;0.47;;;;;;;-145.69;100.00;52289.91;5154903;27;20200;-81
2022/11/01 11:01:50;;;;;;;0.60;0.50;;;;;;;-145.69;100.00;52274.06;5155225;27;20558;-82
2022/11/01 11:04:21;;;;;;;2.33;0.70;;;;;;;-145.69;100.00;52250.31;5153993;27;20306;-82
2022/11/01 11:06:50;;;;;;;1.27;0.80;;;;;;;-145.69;100.00;52270.13;5153137;27;20243;-82
2022/11/01 11:09:23;;;;;;;1.27;0.80;;;;;;;-145.69;100.00;52291.91;5133409;27;20204;-81
2022/11/01 11:11:53;;;;;;;1.52;0.80;;;;;;;-145.69;99.09;52266.16;5133928;27;20204;-82
2022/11/01 11:14:21;;;;;;;2.35;0.60;;;;;;;-145.69;100.00;52278.03;5134395;27;20200;-81
2022/11/01 11:16:51;;;;;;;1.45;0.80;;;;;;;-145.69;97.64;52242.38;5134927;27;20249;-82
2022/11/01 11:19:24;;;;;;;2.97;0.70;;;;;;;-145.69;95.65;52260.22;5134342;27;20238;-81
2022/11/01 11:21:56;;;;;;;1.65;0.70;;;;;;;-145.69;96.62;52262.19;5133988;27;20325;-81
2022/11/01 11:24:24;;;;;;;2.20;0.90;;;;;;;-145.69;94.75;52250.31;5136304;27;20228;-82